createdAt,value
2018-05-23T00:02:01.201Z,16.90
2018-05-23T00:04:28.783Z,17.00
2018-05-23T00:06:56.343Z,16.90
2018-05-23T00:09:23.943Z,16.90
2018-05-23T00:11:51.524Z,16.90
2018-05-23T00:14:19.849Z,16.90
2018-05-23T00:16:47.446Z,16.80
2018-05-23T00:19:15.019Z,16.80
2018-05-23T00:21:42.584Z,16.80
2018-05-23T00:24:10.204Z,16.80
2018-05-23T00:26:37.764Z,16.80
2018-05-23T00:29:06.127Z,16.80
2018-05-23T00:31:33.691Z,16.80
2018-05-23T00:34:01.293Z,16.80
2018-05-23T00:36:28.874Z,16.80
2018-05-23T00:38:56.441Z,16.80
2018-05-23T00:41:24.044Z,16.80
2018-05-23T00:43:51.622Z,16.90
2018-05-23T00:46:19.234Z,16.80
2018-05-23T00:48:46.802Z,16.80
2018-05-23T00:51:14.366Z,16.90
2018-05-23T00:53:41.972Z,16.90
2018-05-23T00:56:09.532Z,16.90
2018-05-23T00:58:37.862Z,16.80
2018-05-23T01:01:05.468Z,16.80
2018-05-23T01:03:33.810Z,16.80
2018-05-23T01:06:01.371Z,16.80
2018-05-23T01:08:28.988Z,16.80
2018-05-23T01:10:56.587Z,16.80
2018-05-23T01:13:24.163Z,16.80
2018-05-23T01:15:51.758Z,16.80
2018-05-23T01:18:19.357Z,16.80
2018-05-23T01:20:46.939Z,16.70
2018-05-23T01:23:14.533Z,16.70
2018-05-23T01:25:42.092Z,16.70
2018-05-23T01:28:09.655Z,16.70
2018-05-23T01:30:37.259Z,16.70
2018-05-23T01:33:05.600Z,16.70
2018-05-23T01:35:33.183Z,16.70
2018-05-23T01:38:00.777Z,16.70
2018-05-23T01:40:29.110Z,16.80
2018-05-23T01:42:56.713Z,16.70
2018-05-23T01:45:25.108Z,16.80
2018-05-23T01:47:53.495Z,16.70
2018-05-23T01:50:21.093Z,16.70
2018-05-23T01:52:48.749Z,16.70
2018-05-23T01:55:16.358Z,16.70
2018-05-23T01:57:44.001Z,16.70
2018-05-23T02:00:11.635Z,16.70
2018-05-23T02:02:39.491Z,16.60
2018-05-23T02:05:07.105Z,16.60
2018-05-23T02:07:34.737Z,16.60
2018-05-23T02:10:02.344Z,16.60
2018-05-23T02:12:29.941Z,16.60
2018-05-23T02:14:58.364Z,16.60
2018-05-23T02:17:25.969Z,16.60
2018-05-23T02:19:53.584Z,16.60
2018-05-23T02:22:21.222Z,16.60
2018-05-23T02:24:49.610Z,16.50
2018-05-23T02:27:18.010Z,16.50
2018-05-23T02:29:45.655Z,16.50
2018-05-23T02:32:14.040Z,16.60
2018-05-23T02:34:42.419Z,16.60
2018-05-23T02:37:10.843Z,16.60
2018-05-23T02:39:38.447Z,16.60
2018-05-23T02:42:06.055Z,16.60
2018-05-23T02:44:33.683Z,16.60
2018-05-23T02:47:01.295Z,16.60
2018-05-23T02:49:28.925Z,16.50
2018-05-23T02:51:57.331Z,16.30
2018-05-23T02:54:24.933Z,16.30
2018-05-23T02:56:52.540Z,16.40
2018-05-23T02:59:20.959Z,16.40
2018-05-23T03:01:48.573Z,16.40
2018-05-23T03:04:16.177Z,16.50
2018-05-23T03:06:43.811Z,16.50
2018-05-23T03:09:11.430Z,16.50
2018-05-23T03:11:39.064Z,16.50
2018-05-23T03:14:07.465Z,16.50
2018-05-23T03:16:35.073Z,16.50
2018-05-23T03:19:02.690Z,16.50
2018-05-23T03:21:30.588Z,16.50
2018-05-23T03:23:58.247Z,16.50
2018-05-23T03:26:25.851Z,16.50
2018-05-23T03:28:53.490Z,16.50
2018-05-23T03:31:21.091Z,16.50
2018-05-23T03:33:48.711Z,16.50
2018-05-23T03:36:16.348Z,16.50
2018-05-23T03:38:43.948Z,16.50
2018-05-23T03:41:12.366Z,16.50
2018-05-23T03:43:40.018Z,16.50
2018-05-23T03:46:07.621Z,16.50
2018-05-23T03:48:35.991Z,16.50
2018-05-23T03:51:04.418Z,16.50
2018-05-23T03:53:32.025Z,16.40
2018-05-23T03:55:59.630Z,16.40
2018-05-23T03:58:27.262Z,16.40
2018-05-23T04:01:08.168Z,16.40
2018-05-23T04:03:47.630Z,16.40
2018-05-23T04:06:27.070Z,16.40
2018-05-23T04:08:54.829Z,16.40
2018-05-23T04:11:22.453Z,16.40
2018-05-23T04:13:50.823Z,16.40
2018-05-23T04:16:19.229Z,16.40
2018-05-23T04:18:46.830Z,16.30
2018-05-23T04:21:14.433Z,16.40
2018-05-23T04:23:42.099Z,16.40
2018-05-23T04:26:09.706Z,16.40
2018-05-23T04:28:37.325Z,16.40
2018-05-23T04:31:05.742Z,16.40
2018-05-23T04:33:33.366Z,16.40
2018-05-23T04:36:00.994Z,16.40
2018-05-23T04:38:28.625Z,16.40
2018-05-23T04:40:56.990Z,16.50
2018-05-23T04:43:24.593Z,16.40
2018-05-23T04:45:52.333Z,16.40
2018-05-23T04:48:20.700Z,16.40
2018-05-23T04:50:48.327Z,16.30
2018-05-23T04:53:15.991Z,16.40
2018-05-23T04:55:43.605Z,16.40
2018-05-23T04:58:11.272Z,16.40
2018-05-23T05:00:38.918Z,16.40
2018-05-23T05:03:06.537Z,16.50
2018-05-23T05:05:34.148Z,16.50
2018-05-23T05:08:01.848Z,16.50
2018-05-23T05:10:30.217Z,16.50
2018-05-23T05:12:57.817Z,16.40
2018-05-23T05:15:25.466Z,16.40
2018-05-23T05:17:53.851Z,16.50
2018-05-23T05:20:22.221Z,16.50
2018-05-23T05:22:50.631Z,16.50
2018-05-23T05:25:18.233Z,16.50
2018-05-23T05:27:45.840Z,16.50
2018-05-23T05:30:14.295Z,16.50
2018-05-23T05:32:41.926Z,16.40
2018-05-23T05:35:09.538Z,16.40
2018-05-23T05:37:37.175Z,16.40
2018-05-23T05:40:04.793Z,16.40
2018-05-23T05:42:33.182Z,16.50
2018-05-23T05:45:02.532Z,16.50
2018-05-23T05:47:30.142Z,16.50
2018-05-23T05:49:58.516Z,16.60
2018-05-23T05:52:26.930Z,16.70
2018-05-23T05:54:54.541Z,16.60
2018-05-23T05:57:22.146Z,16.70
2018-05-23T05:59:50.559Z,16.70
2018-05-23T06:02:18.177Z,16.70
2018-05-23T06:04:45.784Z,16.80
2018-05-23T06:07:13.433Z,16.80
2018-05-23T06:09:41.076Z,16.80
2018-05-23T06:12:09.457Z,16.90
2018-05-23T06:14:37.147Z,16.90
2018-05-23T06:17:05.515Z,17.00
2018-05-23T06:19:33.893Z,17.00
2018-05-23T06:22:02.338Z,17.10
2018-05-23T06:24:29.988Z,17.10
2018-05-23T06:26:57.590Z,17.10
2018-05-23T06:29:25.262Z,17.20
2018-05-23T06:31:52.901Z,17.20
2018-05-23T06:34:21.311Z,17.30
2018-05-23T06:36:48.989Z,17.20
2018-05-23T06:39:16.599Z,17.30
2018-05-23T06:41:44.204Z,17.40
2018-05-23T06:44:11.843Z,17.40
2018-05-23T06:46:39.484Z,17.50
2018-05-23T06:49:07.109Z,17.60
2018-05-23T06:51:34.753Z,17.60
2018-05-23T06:54:02.364Z,17.60
2018-05-23T06:56:30.731Z,17.80
2018-05-23T06:58:58.379Z,17.80
2018-05-23T07:01:25.988Z,17.80
2018-05-23T07:03:53.593Z,17.90
2018-05-23T07:06:21.231Z,18.00
2018-05-23T07:08:48.857Z,18.00
2018-05-23T07:11:16.471Z,18.10
2018-05-23T07:13:44.125Z,18.20
2018-05-23T07:16:11.739Z,18.20
2018-05-23T07:18:39.361Z,18.30
2018-05-23T07:21:07.039Z,18.40
2018-05-23T07:23:34.668Z,18.40
2018-05-23T07:26:03.073Z,18.50
2018-05-23T07:28:30.762Z,18.50
2018-05-23T07:30:58.371Z,18.70
2018-05-23T07:33:26.751Z,18.80
2018-05-23T07:35:54.411Z,18.80
2018-05-23T07:38:22.126Z,18.90
2018-05-23T07:40:49.709Z,18.90
2018-05-23T07:43:17.467Z,19.00
2018-05-23T07:45:45.076Z,19.10
2018-05-23T07:48:12.693Z,19.20
2018-05-23T07:50:40.431Z,19.30
2018-05-23T07:53:08.805Z,19.50
2018-05-23T07:55:37.206Z,19.50
2018-05-23T07:58:04.851Z,19.50
2018-05-23T08:00:32.477Z,19.60
2018-05-23T08:03:00.083Z,19.70
2018-05-23T08:05:28.521Z,20.00
2018-05-23T08:07:56.149Z,20.00
2018-05-23T08:10:24.524Z,20.20
2018-05-23T08:12:53.040Z,20.30
2018-05-23T08:15:20.652Z,20.20
2018-05-23T08:17:48.265Z,20.40
2018-05-23T08:20:15.922Z,20.50
2018-05-23T08:22:43.532Z,20.50
2018-05-23T08:25:11.138Z,20.60
2018-05-23T08:27:39.554Z,20.80
2018-05-23T08:30:07.162Z,20.80
2018-05-23T08:32:34.794Z,20.90
2018-05-23T08:35:02.484Z,21.00
2018-05-23T08:37:30.101Z,21.10
2018-05-23T08:39:57.710Z,21.30
2018-05-23T08:42:25.556Z,21.40
2018-05-23T08:44:53.157Z,21.50
2018-05-23T08:47:20.761Z,21.50
2018-05-23T08:49:49.166Z,21.70
2018-05-23T08:52:16.776Z,21.70
2018-05-23T08:54:44.379Z,21.80
2018-05-23T08:57:12.024Z,21.90
2018-05-23T08:59:40.399Z,22.10
2018-05-23T09:02:07.999Z,22.10
2018-05-23T09:04:35.638Z,22.20
2018-05-23T09:07:04.024Z,22.40
2018-05-23T09:09:32.390Z,22.50
2018-05-23T09:12:00.029Z,22.40
2018-05-23T09:14:27.712Z,22.50
2018-05-23T09:16:55.330Z,22.60
2018-05-23T09:19:23.033Z,22.80
2018-05-23T09:21:50.647Z,22.90
2018-05-23T09:24:19.017Z,23.10
2018-05-23T09:26:47.422Z,23.20
2018-05-23T09:29:15.026Z,23.20
2018-05-23T09:31:42.630Z,23.40
2018-05-23T09:34:11.031Z,23.60
2018-05-23T09:36:38.633Z,23.60
2018-05-23T09:39:07.156Z,23.80
2018-05-23T09:41:34.904Z,23.80
2018-05-23T09:44:02.517Z,23.90
2018-05-23T09:46:30.142Z,24.00
2018-05-23T09:48:57.781Z,24.10
2018-05-23T09:51:25.395Z,24.20
2018-05-23T09:53:53.768Z,24.50
2018-05-23T09:56:21.401Z,24.40
2018-05-23T09:58:49.015Z,24.50
2018-05-23T10:01:17.382Z,24.40
2018-05-23T10:03:45.044Z,24.40
2018-05-23T10:06:12.641Z,24.40
2018-05-23T10:08:40.247Z,24.30
2018-05-23T10:11:07.904Z,24.30
2018-05-23T10:13:35.510Z,23.90
2018-05-23T10:16:03.127Z,23.80
2018-05-23T10:18:30.781Z,23.90
2018-05-23T10:20:58.416Z,23.80
2018-05-23T10:23:26.787Z,23.90
2018-05-23T10:25:54.491Z,23.90
2018-05-23T10:28:22.102Z,23.80
2018-05-23T10:30:50.569Z,23.90
2018-05-23T10:33:18.243Z,23.90
2018-05-23T10:35:45.840Z,23.90
2018-05-23T10:38:13.463Z,23.90
2018-05-23T10:40:41.110Z,23.80
2018-05-23T10:43:08.753Z,23.80
2018-05-23T10:45:37.132Z,23.80
2018-05-23T10:48:05.693Z,23.70
2018-05-23T10:50:33.308Z,23.70
2018-05-23T10:53:00.917Z,23.80
2018-05-23T10:55:30.690Z,23.80
2018-05-23T10:57:58.304Z,23.90
2018-05-23T11:00:25.918Z,23.90
2018-05-23T11:02:53.598Z,23.80
2018-05-23T11:05:21.223Z,23.90
2018-05-23T11:07:49.614Z,24.20
2018-05-23T11:10:18.030Z,24.20
2018-05-23T11:12:45.646Z,24.20
2018-05-23T11:15:14.001Z,24.30
2018-05-23T11:17:41.647Z,24.50
2018-05-23T11:20:09.265Z,24.60
2018-05-23T11:22:44.406Z,24.60
2018-05-23T11:25:12.029Z,24.50
2018-05-23T11:27:39.643Z,24.40
2018-05-23T11:30:07.290Z,24.40
2018-05-23T11:32:34.895Z,24.70
2018-05-23T11:35:02.502Z,24.90
2018-05-23T11:37:31.802Z,25.00
2018-05-23T11:39:59.421Z,25.00
2018-05-23T11:42:27.037Z,24.90
2018-05-23T11:44:54.694Z,24.90
2018-05-23T11:47:22.297Z,24.70
2018-05-23T11:49:50.689Z,24.60
2018-05-23T11:52:18.405Z,24.60
2018-05-23T11:54:46.121Z,24.50
2018-05-23T11:57:14.431Z,24.90
2018-05-23T11:59:42.081Z,24.90
2018-05-23T12:02:09.689Z,24.90
2018-05-23T12:04:37.296Z,24.90
2018-05-23T12:07:04.953Z,24.90
2018-05-23T12:12:07.420Z,24.80
2018-05-23T12:14:35.071Z,24.70
2018-05-23T12:17:03.438Z,24.80
2018-05-23T12:19:31.096Z,24.80
2018-05-23T12:21:58.707Z,24.60
2018-05-23T12:24:26.351Z,24.40
2018-05-23T12:26:54.788Z,24.50
2018-05-23T12:29:22.393Z,24.50
2018-05-23T12:31:50.767Z,24.60
2018-05-23T12:34:18.420Z,24.60
2018-05-23T12:36:46.040Z,24.50
2018-05-23T12:39:13.641Z,24.40
2018-05-23T12:41:41.362Z,24.50
2018-05-23T12:44:09.186Z,24.60
2018-05-23T12:46:36.813Z,24.60
2018-05-23T12:49:04.470Z,24.50
2018-05-23T12:51:32.147Z,24.60
2018-05-23T12:53:59.798Z,24.60
2018-05-23T12:56:27.459Z,24.50
2018-05-23T12:58:55.095Z,24.50
2018-05-23T13:01:22.766Z,24.50
2018-05-23T13:03:50.405Z,24.60
2018-05-23T13:06:18.018Z,24.70
2018-05-23T13:08:46.382Z,24.90
2018-05-23T13:11:14.025Z,24.80
2018-05-23T13:13:41.633Z,25.10
2018-05-23T13:16:10.006Z,25.30
2018-05-23T13:18:38.426Z,25.30
2018-05-23T13:21:06.033Z,25.30
2018-05-23T13:23:33.644Z,25.40
2018-05-23T13:26:01.404Z,25.50
2018-05-23T13:28:28.945Z,25.50
2018-05-23T13:30:57.338Z,25.70
2018-05-23T13:33:25.737Z,25.90
2018-05-23T13:35:53.368Z,25.90
2018-05-23T13:38:20.974Z,26.10
2018-05-23T13:40:48.614Z,26.10
2018-05-23T13:43:17.000Z,26.20
2018-05-23T13:45:45.374Z,26.30
2018-05-23T13:48:13.784Z,26.50
2018-05-23T13:50:41.381Z,26.50
2018-05-23T13:53:08.999Z,26.60
2018-05-23T13:55:36.637Z,26.60
2018-05-23T13:58:04.265Z,26.70
2018-05-23T14:00:31.865Z,26.70
2018-05-23T14:02:59.543Z,26.70
2018-05-23T14:05:27.178Z,26.70
2018-05-23T14:07:54.824Z,26.60
2018-05-23T14:10:22.477Z,26.40
2018-05-23T14:12:50.085Z,26.50
2018-05-23T14:15:17.698Z,26.60
2018-05-23T14:17:45.367Z,26.80
2018-05-23T14:20:13.006Z,27.00
2018-05-23T14:22:40.612Z,27.20
2018-05-23T14:25:08.263Z,27.30
2018-05-23T14:27:35.865Z,27.40
2018-05-23T14:30:03.469Z,27.50
2018-05-23T14:32:31.878Z,27.50
2018-05-23T14:35:00.120Z,27.50
2018-05-23T14:37:27.737Z,27.40
2018-05-23T14:39:55.373Z,27.40
2018-05-23T14:42:23.739Z,27.70
2018-05-23T14:44:51.367Z,27.60
2018-05-23T14:47:19.035Z,27.80
2018-05-23T14:49:46.637Z,27.90
2018-05-23T14:52:14.277Z,27.90
2018-05-23T14:54:41.921Z,28.00
2018-05-23T14:57:09.533Z,28.10
2018-05-23T14:59:37.142Z,28.20
2018-05-23T15:02:05.565Z,28.20
2018-05-23T15:04:33.175Z,28.20
2018-05-23T15:07:00.795Z,28.30
2018-05-23T15:09:28.477Z,28.40
2018-05-23T15:11:56.097Z,28.40
2018-05-23T15:14:23.799Z,28.30
2018-05-23T15:16:52.187Z,27.90
2018-05-23T15:19:19.813Z,27.90
2018-05-23T15:21:47.425Z,27.80
2018-05-23T15:24:15.070Z,27.70
2018-05-23T15:26:42.671Z,27.80
2018-05-23T15:29:10.289Z,27.80
2018-05-23T15:31:37.993Z,27.80
2018-05-23T15:34:05.631Z,27.90
2018-05-23T15:36:33.228Z,27.90
2018-05-23T15:39:00.862Z,27.80
2018-05-23T15:41:28.464Z,27.80
2018-05-23T15:43:56.708Z,27.90
2018-05-23T15:46:24.360Z,28.10
2018-05-23T15:48:51.982Z,28.20
2018-05-23T15:51:19.596Z,28.40
2018-05-23T15:53:47.251Z,28.40
2018-05-23T15:56:14.882Z,28.50
2018-05-23T15:58:42.512Z,28.40
2018-05-23T16:01:10.186Z,28.10
2018-05-23T16:03:37.787Z,28.00
2018-05-23T16:06:06.163Z,27.80
2018-05-23T16:08:33.812Z,27.80
2018-05-23T16:11:01.427Z,27.70
2018-05-23T16:13:29.045Z,27.70
2018-05-23T16:15:56.697Z,27.60
2018-05-23T16:18:24.302Z,27.50
2018-05-23T16:20:52.691Z,27.40
2018-05-23T16:23:21.084Z,27.40
2018-05-23T16:25:49.446Z,27.20
2018-05-23T16:28:17.831Z,27.10
2018-05-23T16:30:46.227Z,27.10
2018-05-23T16:33:14.625Z,27.10
2018-05-23T16:35:42.231Z,27.10
2018-05-23T16:38:09.978Z,27.10
2018-05-23T16:40:37.589Z,27.10
2018-05-23T16:43:05.209Z,27.10
2018-05-23T16:45:32.853Z,27.00
2018-05-23T16:48:01.296Z,26.80
2018-05-23T16:50:28.943Z,26.80
2018-05-23T16:52:56.588Z,26.70
2018-05-23T16:55:24.214Z,26.60
2018-05-23T16:57:54.220Z,26.60
2018-05-23T17:00:21.871Z,26.50
2018-05-23T17:02:49.558Z,26.30
2018-05-23T17:05:17.197Z,26.10
2018-05-23T17:07:44.845Z,25.90
2018-05-23T17:10:12.457Z,25.80
2018-05-23T17:12:40.066Z,25.60
2018-05-23T17:15:07.713Z,25.50
2018-05-23T17:17:35.320Z,25.40
2018-05-23T17:20:02.943Z,25.30
2018-05-23T17:22:30.643Z,25.20
2018-05-23T17:24:58.254Z,25.10
2018-05-23T17:27:25.865Z,25.00
2018-05-23T17:29:53.506Z,24.90
2018-05-23T17:32:21.113Z,24.70
2018-05-23T17:34:48.728Z,24.60
2018-05-23T17:37:17.156Z,24.40
2018-05-23T17:39:44.765Z,24.40
2018-05-23T17:42:12.431Z,24.30
2018-05-23T17:44:40.091Z,24.20
2018-05-23T17:47:07.720Z,24.10
2018-05-23T17:49:35.329Z,24.10
2018-05-23T17:52:03.737Z,23.80
2018-05-23T17:54:31.458Z,23.80
2018-05-23T17:56:59.083Z,23.80
2018-05-23T17:59:26.761Z,23.70
2018-05-23T18:01:54.376Z,23.60
2018-05-23T18:04:22.762Z,23.40
2018-05-23T18:06:51.232Z,23.20
2018-05-23T18:09:18.864Z,23.20
2018-05-23T18:11:46.465Z,23.10
2018-05-23T18:14:14.096Z,23.00
2018-05-23T18:16:41.758Z,22.90
2018-05-23T18:19:09.365Z,22.80
2018-05-23T18:21:37.012Z,22.70
2018-05-23T18:24:04.713Z,22.60
2018-05-23T18:26:33.093Z,22.40
2018-05-23T18:29:00.745Z,22.40
2018-05-23T18:31:28.353Z,22.30
2018-05-23T18:33:55.973Z,22.20
2018-05-23T18:36:23.876Z,22.20
2018-05-23T18:38:52.257Z,22.00
2018-05-23T18:41:19.873Z,22.00
2018-05-23T18:43:47.513Z,22.00
2018-05-23T18:46:15.673Z,21.90
2018-05-23T18:48:43.276Z,21.80
2018-05-23T18:51:11.249Z,21.60
2018-05-23T18:53:38.886Z,21.60
2018-05-23T18:56:06.509Z,21.50
2018-05-23T18:58:34.163Z,21.40
2018-05-23T19:01:01.794Z,21.40
2018-05-23T19:03:29.424Z,21.30
2018-05-23T19:05:57.837Z,21.20
2018-05-23T19:08:25.455Z,21.10
2018-05-23T19:10:53.092Z,21.10
2018-05-23T19:13:20.747Z,21.10
2018-05-23T19:15:48.358Z,21.00
2018-05-23T19:18:16.002Z,20.90
2018-05-23T19:20:43.652Z,20.80
2018-05-23T19:23:11.262Z,20.80
2018-05-23T19:25:39.698Z,20.70
2018-05-23T19:28:07.378Z,20.70
2018-05-23T19:30:34.990Z,20.60
2018-05-23T19:33:03.369Z,20.60
2018-05-23T19:35:32.267Z,20.50
2018-05-23T19:38:00.733Z,20.40
2018-05-23T19:40:28.335Z,20.40
2018-05-23T19:42:55.974Z,20.40
2018-05-23T19:45:24.386Z,20.20
2018-05-23T19:47:51.997Z,20.20
2018-05-23T19:50:19.643Z,20.10
2018-05-23T19:52:47.344Z,20.10
2018-05-23T19:55:14.912Z,20.00
2018-05-23T19:57:42.587Z,20.00
2018-05-23T20:00:10.977Z,19.80
2018-05-23T20:02:39.388Z,19.80
2018-05-23T20:05:07.031Z,19.80
2018-05-23T20:07:35.423Z,19.70
2018-05-23T20:10:03.050Z,19.70
2018-05-23T20:12:30.690Z,19.60
2018-05-23T20:14:58.298Z,19.60
2018-05-23T20:17:25.913Z,19.50
2018-05-23T20:19:53.557Z,19.50
2018-05-23T20:22:21.172Z,19.50
2018-05-23T20:24:49.934Z,19.40
2018-05-23T20:27:18.496Z,19.30
2018-05-23T20:29:46.122Z,19.30
2018-05-23T20:32:13.731Z,19.20
2018-05-23T20:34:41.374Z,19.20
2018-05-23T20:37:09.757Z,19.10
2018-05-23T20:39:38.131Z,19.00
2018-05-23T20:42:05.785Z,19.10
2018-05-23T20:44:33.425Z,19.00
2018-05-23T20:47:01.090Z,19.00
2018-05-23T20:49:28.729Z,18.90
2018-05-23T20:51:56.370Z,18.80
2018-05-23T20:54:24.774Z,18.80
2018-05-23T20:56:52.440Z,18.80
2018-05-23T20:59:20.061Z,18.70
2018-05-23T21:01:47.674Z,18.70
2018-05-23T21:04:15.353Z,18.60
2018-05-23T21:06:42.957Z,18.60
2018-05-23T21:09:10.572Z,18.50
2018-05-23T21:11:38.265Z,18.50
2018-05-23T21:14:05.845Z,18.50
2018-05-23T21:16:33.480Z,18.40
2018-05-23T21:19:01.117Z,18.40
2018-05-23T21:21:29.498Z,18.40
2018-05-23T21:23:57.891Z,18.30
2018-05-23T21:26:43.587Z,18.30
2018-05-23T21:29:11.218Z,18.30
2018-05-23T21:31:42.052Z,18.20
2018-05-23T21:34:09.671Z,18.20
2018-05-23T21:36:37.277Z,18.10
2018-05-23T21:39:05.802Z,18.10
2018-05-23T21:41:33.402Z,18.10
2018-05-23T21:44:01.010Z,18.00
2018-05-23T21:46:29.453Z,18.00
2018-05-23T21:48:57.078Z,17.90
2018-05-23T21:51:24.696Z,17.90
2018-05-23T21:53:52.415Z,17.90
2018-05-23T21:56:20.042Z,17.80
2018-05-23T21:58:47.657Z,17.70
2018-05-23T22:01:15.309Z,17.70
2018-05-23T22:03:42.916Z,17.70
2018-05-23T22:06:10.521Z,17.70
2018-05-23T22:08:38.932Z,17.60
2018-05-23T22:11:06.569Z,17.60
2018-05-23T22:13:34.946Z,17.50
2018-05-23T22:16:02.592Z,17.50
2018-05-23T22:18:30.217Z,17.40
2018-05-23T22:20:57.857Z,17.40
2018-05-23T22:23:26.284Z,17.30
2018-05-23T22:25:53.893Z,17.20
2018-05-23T22:28:22.266Z,17.20
2018-05-23T22:30:50.000Z,17.20
2018-05-23T22:33:17.617Z,17.20
2018-05-23T22:35:45.984Z,17.20
2018-05-23T22:38:13.640Z,17.10
2018-05-23T22:40:41.259Z,17.10
2018-05-23T22:43:08.860Z,17.10
2018-05-23T22:45:36.493Z,17.10
2018-05-23T22:48:04.105Z,17.10
2018-05-23T22:50:32.473Z,17.00
2018-05-23T22:53:00.117Z,17.00
2018-05-23T22:55:27.716Z,17.00
2018-05-23T22:57:56.617Z,16.90
2018-05-23T23:00:25.028Z,16.90
2018-05-23T23:02:52.642Z,16.90
2018-05-23T23:05:20.251Z,16.90
2018-05-23T23:07:48.648Z,16.90
2018-05-23T23:10:16.246Z,16.80
2018-05-23T23:12:43.841Z,16.80
2018-05-23T23:15:12.245Z,16.80
2018-05-23T23:17:39.845Z,16.80
2018-05-23T23:20:07.453Z,16.80
2018-05-23T23:22:38.576Z,16.70
2018-05-23T23:25:06.196Z,16.70
2018-05-23T23:27:33.825Z,16.60
2018-05-23T23:30:01.451Z,16.60
2018-05-23T23:32:29.085Z,16.60
2018-05-23T23:34:56.685Z,16.50
2018-05-23T23:37:24.318Z,16.50
2018-05-23T23:39:51.925Z,16.50
2018-05-23T23:42:19.533Z,16.40
2018-05-23T23:44:47.938Z,16.30
2018-05-23T23:47:15.546Z,16.30
2018-05-23T23:49:43.144Z,16.30
2018-05-23T23:52:11.541Z,16.20
2018-05-23T23:54:39.186Z,16.20
2018-05-23T23:57:06.831Z,16.20
2018-05-23T23:59:34.474Z,16.20
